• Join FlightAware (Why Join?)
  • Login
  • US Flag 
04:15AM EDT


 

Airport Tracker/Info


-or-


 

Live Flight TrackerFlight Track Log ✈ N9029R ✈ 28-Sep-2013 ✈ KHPY - KHQZ

Flight Track Log - Related Links

Times and Time Zones

All times are in EDT time to prevent confusion due to time zone crossing. See the N9029R flight status page for this flight to view local times or setup timezone preferences in your user account.

Time Position Orientation Groundspeed Altitude Reporting Facility
EDT Latitude Longitude Course Direction KTS MPH feet Rate Location/Type
07:15PM 29.7614 -94.8861 344° North 209 241 1,900  Level Houston Center
07:15PM 29.7831 -94.8931 344° North 206 237 2,000 180 Climbing Houston Center
07:16PM 29.8317 -94.9183 336° Northwest 189 217 2,200 180 Climbing Houston Center
07:17PM 29.8533 -94.9275 340° North 192 221 2,300 240 Climbing Houston Center
07:17PM 29.8781 -94.9417 334° Northwest 172 198 2,500 240 Climbing Houston Center
07:18PM 29.8961 -94.9500 338° Northwest 182 209 2,600 180 Climbing Houston Center
07:18PM 29.9186 -94.9703 322° Northwest 174 200 2,700 180 Climbing Houston Center
07:19PM 29.9328 -94.9839 320° Northwest 173 199 2,800 240 Climbing Houston Center
07:19PM 29.9556 -95.0067 319° Northwest 175 201 3,000 480 Climbing Houston Center
07:20PM 29.9781 -95.0303 318° Northwest 181 208 3,300 600 Climbing Houston Center
07:20PM 29.9953 -95.0500 315° West 193 222 3,600 660 Climbing Houston Center
07:21PM 30.0172 -95.0722 319° Northwest 191 220 4,000 660 Climbing Houston Center
07:21PM 30.0350 -95.0908 318° Northwest 195 224 4,300 660 Climbing Houston Center
07:22PM 30.0575 -95.1136 319° Northwest 193 222 4,700 540 Climbing Houston Center
07:22PM 30.0767 -95.1342 317° Northwest 190 219 4,900 180 Climbing Houston Center
07:23PM 30.0961 -95.1544 318° Northwest 190 219 4,900  Level Houston Center
07:23PM 30.1117 -95.1708 318° Northwest 191 220 4,900  Level Houston Center
07:24PM 30.1353 -95.1964 317° Northwest 191 220 4,900  Level Houston Center
07:24PM 30.1514 -95.2142 316° Northwest 194 223 4,900  Level Houston Center
07:25PM 30.1725 -95.2394 314° West 191 220 4,900  Level Houston Center
07:25PM 30.1892 -95.2603 313° West 192 221 4,900  Level Houston Center
07:26PM 30.1997 -95.2919 291° West 192 221 4,900  Level Houston Center
07:26PM 30.2053 -95.3189 283° West 191 220 4,900  Level Houston Center
07:27PM 30.2147 -95.3497 290° West 189 217 4,900  Level Houston Center
07:27PM 30.2211 -95.3797 284° West 191 220 4,900  Level Houston Center
07:28PM 30.2328 -95.4197 289° West 190 219 4,900  Level Houston Center
07:28PM 30.2369 -95.4383 285° West 191 220 4,900  Level Houston Center
07:29PM 30.2492 -95.4789 289° West 193 222 4,900  Level Houston Center
07:29PM 30.2489 -95.4997 269° West 195 224 4,900  Level Houston Center
07:30PM 30.2494 -95.5408 271° West 193 222 4,900  Level Houston Center
07:30PM 30.2458 -95.5606 258° West 189 217 4,900  Level Houston Center
07:31PM 30.2461 -95.6011 270° West 187 215 4,900  Level Houston Center
07:31PM 30.2433 -95.6261 263° West 191 220 4,900 60 Level Houston Center
07:32PM 30.2422 -95.6622 268° West 190 219 5,000 180 Climbing Houston Center
07:32PM 30.2406 -95.6869 266° West 190 219 5,100 720 Climbing Houston Center
07:33PM 30.2369 -95.7431 266° West 171 197 6,000 780 Climbing Houston Center
07:34PM 30.2356 -95.7750 267° West 172 198 6,500 780 Climbing Houston Center
07:34PM 30.2333 -95.7967 263° West 168 193 6,800 660 Climbing Houston Center
07:35PM 30.2267 -95.8275 256° West 168 193 7,200 780 Climbing Houston Center
07:35PM 30.2211 -95.8489 253° West 168 193 7,600 660 Climbing Houston Center
07:36PM 30.2122 -95.8900 256° West 168 193 7,900 240 Climbing Houston Center
07:36PM 30.2092 -95.9058 257° West 172 198 7,900  Level Houston Center
07:37PM 30.2014 -95.9442 257° West 171 197 7,900  Level Houston Center
07:37PM 30.1969 -95.9578 249° West 171 197 7,900  Level Houston Center
07:38PM 30.1872 -95.9911 251° West 159 183 7,900  Level Houston Center
07:38PM 30.1778 -96.0036 229° Southwest 154 177 7,900  Level Houston Center
07:39PM 30.1600 -96.0272 229° Southwest 152 175 7,900  Level Houston Center
07:39PM 30.1494 -96.0383 222° Southwest 154 177 7,900  Level Houston Center
07:40PM 30.1258 -96.0581 216° Southwest 155 178 7,900  Level Houston Center
07:40PM 30.1119 -96.0667 208° Southwest 151 174 7,900  Level Houston Center
07:41PM 30.0900 -96.0839 214° Southwest 151 174 7,900  Level Houston Center
07:41PM 30.0769 -96.0994 226° Southwest 159 183 7,900  Level Houston Center
07:42PM 30.0558 -96.1200 220° Southwest 163 188 7,900  Level Houston Center
07:42PM 30.0422 -96.1347 223° Southwest 167 192 7,900  Level Houston Center
07:43PM 30.0200 -96.1569 221° Southwest 170 196 7,900  Level Houston Center
07:44PM 29.9786 -96.1908 215° Southwest 184 212 7,900 540 Level Houston Center
07:45PM 29.9200 -96.2147 199° South 186 214 9,100 1,320 Climbing Houston Center
07:46PM 29.9106 -96.2622 257° West 150 173 10,600 1,200 Climbing Houston Center
07:47PM 29.9050 -96.3119 263° West 155 178 11,600 960 Climbing Houston Center
07:48PM 29.9017 -96.3639 266° West 161 185 12,600 960 Climbing Houston Center
07:49PM 29.8956 -96.4147 262° West 160 184 13,600 780 Climbing Houston Center
07:50PM 29.8869 -96.4667 259° West 166 191 14,200 600 Climbing Houston Center
07:51PM 29.8764 -96.5214 257° West 174 200 14,900 600 Climbing Houston Center
07:52PM 29.8669 -96.5783 259° West 180 207 15,500 480 Climbing Houston Center
07:53PM 29.8569 -96.6342 258° West 178 205 16,000 240 Climbing Houston Center
07:55PM 29.8431 -96.7075 258° West 192 221 16,000  Level Houston Center
07:56PM 29.8289 -96.7714 256° West 204 235 16,000  Level Houston Center
07:57PM 29.8119 -96.8342 253° West 206 237 16,000  Level Houston Center
07:58PM 29.7944 -96.8969 252° West 206 237 16,000  Level Houston Center
07:59PM 29.7783 -96.9592 253° West 205 236 16,000  Level Houston Center
08:00PM 29.7692 -97.0244 261° West 207 238 16,000  Level Houston Center
08:01PM 29.7756 -97.0919 276° West 212 244 16,000  Level Houston Center
08:02PM 29.7964 -97.1558 291° West 214 246 16,000  Level Houston Center
08:03PM 29.8253 -97.2306 294° West 214 246 16,000  Level Houston Center
08:04PM 29.8514 -97.2939 295° West 218 251 16,000  Level Houston Center
08:05PM 29.8756 -97.3564 294° West 216 249 16,000  Level Houston Center
08:06PM 29.9058 -97.4189 299° West 222 255 16,000  Level Houston Center
08:07PM 29.9539 -97.4658 320° Northwest 230 265 16,000  Level Houston Center
08:08PM 30.0131 -97.4972 335° Northwest 234 269 16,000  Level Houston Center
08:09PM 30.0731 -97.5258 338° Northwest 234 269 16,000  Level Houston Center
08:10PM 30.1322 -97.5544 337° Northwest 235 270 16,000  Level Houston Center
08:11PM 30.2025 -97.5919 335° Northwest 236 272 16,000  Level Houston Center
08:12PM 30.2653 -97.6167 341° North 236 272 16,000  Level Houston Center
08:13PM 30.3311 -97.6414 342° North 243 280 16,000  Level Houston Center
08:14PM 30.3953 -97.6639 343° North 239 275 16,000  Level Houston Center
08:15PM 30.4564 -97.6914 339° North 235 270 16,000  Level Houston Center
08:16PM 30.5094 -97.7369 324° Northwest 233 268 16,000  Level Houston Center
08:17PM 30.5608 -97.7831 322° Northwest 231 266 16,000  Level Houston Center
08:18PM 30.6164 -97.8208 330° Northwest 230 265 16,000  Level Houston Center
08:19PM 30.6706 -97.8597 328° Northwest 227 261 16,000  Level Houston Center
08:20PM 30.7281 -97.8914 335° Northwest 225 259 16,000  Level Houston Center
08:21PM 30.7925 -97.8939 358° North 229 264 16,000  Level Houston Center
08:22PM 30.8589 -97.8894 North 232 267 16,000  Level Houston Center
08:23PM 30.9256 -97.8811 North 236 272 16,000  Level Houston Center
08:24PM 30.9914 -97.8692 North 237 273 16,000  Level Houston Center
08:25PM 31.0225 -97.8642 North 233 268 16,000  Level Fort Worth Center
08:26PM 31.0894 -97.8525 North 233 268 16,000  Level Fort Worth Center
08:27PM 31.1583 -97.8308 15° North 238 274 16,000  Level Fort Worth Center
08:28PM 31.2231 -97.8092 16° North 238 274 16,000  Level Fort Worth Center
08:29PM 31.2858 -97.7853 18° North 238 274 16,000  Level Fort Worth Center
08:30PM 31.3506 -97.7661 14° North 243 280 16,000  Level Fort Worth Center
08:31PM 31.4175 -97.7444 15° North 238 274 16,000  Level Fort Worth Center
08:32PM 31.4822 -97.7228 16° North 243 280 16,000  Level Fort Worth Center
08:33PM 31.5469 -97.7033 14° North 243 280 16,000  Level Fort Worth Center
08:34PM 31.6075 -97.6842 15° North 243 280 16,000  Level Fort Worth Center
08:35PM 31.6744 -97.6647 14° North 243 280 16,000 -60 Level Fort Worth Center
08:36PM 31.7372 -97.6456 15° North 238 274 15,900 -420 Descending Fort Worth Center
08:37PM 31.8081 -97.6236 15° North 246 283 15,200 -900 Descending Fort Worth Center
08:38PM 31.8792 -97.6017 15° North 258 297 14,200 -1,200 Descending Fort Worth Center
08:39PM 31.9522 -97.5797 14° North 263 303 12,800 -1,440 Descending Fort Worth Center
08:40PM 32.0233 -97.5581 14° North 263 303 11,400 -1,500 Descending Fort Worth Center
08:41PM 32.0983 -97.5336 15° North 257 296 9,900 -1,320 Descending Fort Worth Center
08:42PM 32.1611 -97.5189 11° North 257 296 8,800 -1,260 Descending Fort Worth Center
08:43PM 32.2342 -97.4969 14° North 257 296 7,500 -1,260 Descending Fort Worth Center
08:44PM 32.2947 -97.4772 15° North 252 290 6,300 -1,200 Descending Fort Worth Center
08:45PM 32.3489 -97.4158 44° Northeast 242 278 5,100 -660 Descending Fort Worth Center
08:46PM 32.3594 -97.3494 79° East 227 261 5,000 -60 Descending Fort Worth Center
08:47PM 32.3719 -97.2756 79° East 215 247 5,000  Level Fort Worth Center
08:48PM 32.3803 -97.2167 80° East 210 242 5,000  Level Fort Worth Center
08:49PM 32.3906 -97.1453 80° East 204 235 5,000  Level Fort Worth Center
08:50PM 32.3986 -97.0814 81° East 204 235 5,000  Level Fort Worth Center
08:51PM 32.4111 -97.0075 79° East 204 235 5,000  Level Fort Worth Center
08:52PM 32.4256 -96.9483 74° East 204 235 5,000  Level Fort Worth Center
08:53PM 32.4461 -96.8792 71° East 204 235 5,000 -300 Level Fort Worth Center
08:54PM 32.4686 -96.8200 66° East 199 229 4,400 -720 Descending Fort Worth Center
08:55PM 32.4831 -96.7681 72° East 188 216 3,600 -720 Descending Fort Worth Center
08:56PM 32.5036 -96.7114 67° East 178 205 3,000 -240 Descending Fort Worth Center
08:58PM 32.5333 -96.6000 72° East 144 166 2,900 -60 Descending Dallas / Fort Worth TRACON
08:59PM 32.5500 -96.5667 59° Northeast 150 173 2,900 -120 Level Dallas / Fort Worth TRACON
09:00PM 32.5833 -96.5333 40° Northeast 143 165 2,700 -480 Descending Dallas / Fort Worth TRACON
09:01PM 32.6167 -96.5333 360° North 140 161 2,000 -720 Descending Dallas / Fort Worth TRACON